Time;durP1;ratioP1;P1;durP2;ratioP2;P2;SDS_P1;SDS_P2;PMS_P1;PMS_P2;Temp;Humidity;BMP_temperature;BMP_pressure;BME280_temperature;BME280_humidity;BME280_pressure;Samples;Min_cycle;Max_cycle;Signal;HPM_P1;HPM_P2
2024/04/11 00:01:49;;;;;;;234.00;68.73;;;;;;;;;;5378429;26;20503;-41
2024/04/11 00:04:15;;;;;;;232.80;68.50;;;;;;;;;;5377207;26;20456;-41
2024/04/11 00:06:41;;;;;;;236.53;73.07;;;;;;;;;;5375978;26;20863;-41
2024/04/11 00:09:07;;;;;;;235.37;71.13;;;;;;;;;;5374965;26;20876;-41
2024/04/11 00:11:33;;;;;;;238.00;72.10;;;;;;;;;;5370936;26;20548;-41
2024/04/11 00:13:59;;;;;;;232.30;67.77;;;;;;;;;;5368740;26;20456;-41
2024/04/11 00:16:25;;;;;;;233.93;68.75;;;;;;;;;;5372909;26;20448;-41
2024/04/11 00:18:51;;;;;;;234.37;68.80;;;;;;;;;;5372013;26;20257;-41
2024/04/11 00:21:18;;;;;;;233.17;67.47;;;;;;;;;;5371254;26;20452;-41
2024/04/11 00:23:47;;;;;;;233.85;71.32;;;;;;;;;;5372935;26;20791;-41
2024/04/11 00:26:13;;;;;;;237.82;72.65;;;;;;;;;;5360026;26;20269;-41
2024/04/11 00:28:39;;;;;;;236.23;72.30;;;;;;;;;;5371376;26;20225;-41
2024/04/11 00:31:05;;;;;;;233.73;67.35;;;;;;;;;;5366523;26;20468;-40
2024/04/11 00:33:31;;;;;;;235.82;71.75;;;;;;;;;;5367649;26;20802;-41
2024/04/11 00:35:59;;;;;;;236.40;71.05;;;;;;;;;;5379372;26;20221;-41
2024/04/11 00:38:27;;;;;;;234.82;68.53;;;;;;;;;;5379367;26;20223;-41
2024/04/11 00:40:59;;;;;;;237.15;72.68;;;;;;;;;;5378615;26;20339;-41
2024/04/11 00:43:26;;;;;;;232.95;68.65;;;;;;;;;;5380066;26;20333;-41
2024/04/11 00:45:53;;;;;;;238.50;75.82;;;;;;;;;;5377604;26;20222;-41
2024/04/11 00:48:21;;;;;;;233.20;68.22;;;;;;;;;;5376718;26;20510;-40
2024/04/11 00:50:48;;;;;;;231.05;66.53;;;;;;;;;;5375597;26;20234;-41
2024/04/11 00:53:15;;;;;;;234.43;69.70;;;;;;;;;;5374717;26;20241;-40
2024/04/11 00:55:41;;;;;;;237.85;72.63;;;;;;;;;;5375791;26;20260;-41
2024/04/11 00:58:08;;;;;;;235.50;68.97;;;;;;;;;;5377381;26;20260;-41
2024/04/11 01:00:34;;;;;;;237.38;73.72;;;;;;;;;;5372464;26;20222;-41
2024/04/11 01:03:02;;;;;;;237.65;73.80;;;;;;;;;;5370546;26;20234;-41
2024/04/11 01:05:28;;;;;;;232.95;67.18;;;;;;;;;;5369565;26;20223;-41
2024/04/11 01:07:54;;;;;;;233.83;68.67;;;;;;;;;;5369808;26;20312;-41
2024/04/11 01:10:22;;;;;;;233.27;68.55;;;;;;;;;;5379160;26;20464;-41
2024/04/11 01:12:48;;;;;;;238.15;72.53;;;;;;;;;;5379659;26;20276;-42
2024/04/11 01:15:14;;;;;;;238.57;72.43;;;;;;;;;;5367080;26;20343;-41
2024/04/11 01:17:40;;;;;;;231.60;66.22;;;;;;;;;;5366371;26;20269;-41
2024/04/11 01:20:07;;;;;;;234.17;70.03;;;;;;;;;;5378829;26;20266;-41
2024/04/11 01:22:36;;;;;;;235.35;71.65;;;;;;;;;;5379003;26;20588;-41
2024/04/11 01:25:02;;;;;;;238.23;76.88;;;;;;;;;;5377898;26;20225;-41
2024/04/11 01:27:29;;;;;;;232.38;68.85;;;;;;;;;;5379288;26;20303;-41
2024/04/11 01:29:55;;;;;;;232.80;67.60;;;;;;;;;;5377371;26;20313;-41
2024/04/11 01:32:21;;;;;;;233.87;70.27;;;;;;;;;;5376110;26;20240;-41
2024/04/11 01:34:47;;;;;;;238.13;75.80;;;;;;;;;;5368157;26;20517;-41
2024/04/11 01:37:13;;;;;;;232.50;67.00;;;;;;;;;;5366595;26;20266;-41
2024/04/11 01:39:39;;;;;;;231.80;68.17;;;;;;;;;;5367689;26;20465;-41
2024/04/11 01:42:05;;;;;;;236.50;71.03;;;;;;;;;;5368039;26;20455;-41
2024/04/11 01:44:31;;;;;;;234.30;68.22;;;;;;;;;;5372002;26;20523;-41
2024/04/11 01:46:57;;;;;;;234.48;70.53;;;;;;;;;;5370614;26;20592;-41
2024/04/11 01:49:24;;;;;;;235.07;70.43;;;;;;;;;;5365239;26;20221;-41
2024/04/11 01:51:50;;;;;;;233.13;68.93;;;;;;;;;;5369629;26;20223;-41
2024/04/11 01:54:16;;;;;;;234.95;68.95;;;;;;;;;;5376680;26;20222;-41
2024/04/11 01:56:42;;;;;;;235.20;70.10;;;;;;;;;;5370201;26;20217;-41
2024/04/11 01:59:08;;;;;;;234.43;69.63;;;;;;;;;;5366906;26;20561;-41
2024/04/11 02:01:37;;;;;;;234.07;68.30;;;;;;;;;;5366044;26;20448;-41
2024/04/11 02:04:06;;;;;;;233.85;70.07;;;;;;;;;;5378547;26;21133;-41
2024/04/11 02:06:34;;;;;;;233.80;67.10;;;;;;;;;;5378093;26;20237;-41
2024/04/11 02:09:05;;;;;;;234.25;72.20;;;;;;;;;;5377695;26;20234;-41
2024/04/11 02:11:31;;;;;;;234.63;71.63;;;;;;;;;;5377974;26;20259;-41
2024/04/11 02:13:58;;;;;;;237.07;74.47;;;;;;;;;;5376563;26;20221;-41
2024/04/11 02:16:28;;;;;;;236.57;72.57;;;;;;;;;;5375280;26;20455;-41
2024/04/11 02:18:55;;;;;;;235.25;71.50;;;;;;;;;;5374251;26;20293;-41
2024/04/11 02:21:21;;;;;;;233.30;68.93;;;;;;;;;;5373371;26;20320;-41
2024/04/11 02:23:47;;;;;;;234.52;69.45;;;;;;;;;;5373624;26;20234;-41
2024/04/11 02:26:13;;;;;;;234.97;72.70;;;;;;;;;;5357584;26;20223;-41
2024/04/11 02:28:39;;;;;;;234.47;71.37;;;;;;;;;;5370092;26;20582;-41
2024/04/11 02:31:05;;;;;;;237.00;71.53;;;;;;;;;;5370189;26;20910;-41
2024/04/11 02:33:32;;;;;;;232.10;68.53;;;;;;;;;;5369485;26;20225;-41
2024/04/11 02:35:58;;;;;;;233.77;68.50;;;;;;;;;;5368296;26;20597;-41
2024/04/11 02:38:25;;;;;;;236.73;74.63;;;;;;;;;;5374049;26;20234;-41
2024/04/11 02:40:52;;;;;;;236.57;74.25;;;;;;;;;;5372610;26;20229;-41
2024/04/11 02:43:18;;;;;;;233.40;69.63;;;;;;;;;;5366467;26;20225;-41
2024/04/11 02:45:44;;;;;;;236.82;73.13;;;;;;;;;;5365227;26;20822;-41
2024/04/11 02:48:10;;;;;;;233.83;70.33;;;;;;;;;;5364199;26;20230;-41
2024/04/11 02:50:36;;;;;;;231.93;68.27;;;;;;;;;;5377860;26;20459;-41
2024/04/11 02:53:02;;;;;;;237.37;74.17;;;;;;;;;;5376586;26;20480;-41
2024/04/11 02:55:31;;;;;;;235.77;74.57;;;;;;;;;;5377804;26;20463;-41
2024/04/11 02:57:57;;;;;;;235.82;74.22;;;;;;;;;;5375657;26;20509;-41
2024/04/11 03:00:23;;;;;;;240.10;78.90;;;;;;;;;;5375186;26;20229;-41
2024/04/11 03:02:49;;;;;;;238.32;75.13;;;;;;;;;;5373735;26;20457;-41
2024/04/11 03:05:16;;;;;;;235.00;71.60;;;;;;;;;;5372340;26;20276;-41
2024/04/11 03:07:42;;;;;;;239.00;74.85;;;;;;;;;;5373987;26;20456;-41
2024/04/11 03:10:09;;;;;;;236.10;70.97;;;;;;;;;;5375432;26;20345;-41
2024/04/11 03:12:35;;;;;;;235.82;71.78;;;;;;;;;;5370451;26;20241;-41
2024/04/11 03:15:03;;;;;;;235.20;71.77;;;;;;;;;;5369407;26;20361;-41
2024/04/11 03:17:33;;;;;;;232.93;68.53;;;;;;;;;;5368724;26;20776;-41
2024/04/11 03:19:59;;;;;;;235.93;71.13;;;;;;;;;;5368485;26;20339;-41
2024/04/11 03:22:25;;;;;;;234.37;70.77;;;;;;;;;;5373498;26;20249;-41
2024/04/11 03:24:51;;;;;;;234.10;70.97;;;;;;;;;;5373166;26;20514;-41
2024/04/11 03:27:17;;;;;;;236.67;72.27;;;;;;;;;;5366843;26;20447;-41
2024/04/11 03:29:45;;;;;;;235.73;73.13;;;;;;;;;;5368157;26;20455;-41
2024/04/11 03:32:11;;;;;;;236.95;73.60;;;;;;;;;;5380408;26;20459;-41
2024/04/11 03:34:39;;;;;;;236.38;72.20;;;;;;;;;;5379082;26;20610;-41
2024/04/11 03:37:06;;;;;;;238.55;75.85;;;;;;;;;;5367899;26;20335;-41
2024/04/11 03:39:32;;;;;;;234.35;71.60;;;;;;;;;;5357049;26;20222;-41
2024/04/11 03:41:58;;;;;;;237.43;73.03;;;;;;;;;;5367074;26;20271;-41
2024/04/11 03:44:24;;;;;;;242.00;79.32;;;;;;;;;;5380672;26;20444;-40
2024/04/11 03:46:50;;;;;;;234.18;70.10;;;;;;;;;;5376126;26;20654;-41
2024/04/11 03:49:16;;;;;;;231.37;68.00;;;;;;;;;;5375497;26;20213;-41
2024/04/11 03:51:44;;;;;;;239.07;74.47;;;;;;;;;;5376935;26;20814;-41
2024/04/11 03:54:10;;;;;;;237.52;74.45;;;;;;;;;;5368095;26;20453;-41
2024/04/11 03:56:37;;;;;;;235.90;72.38;;;;;;;;;;5351436;26;20269;-41
2024/04/11 03:59:06;;;;;;;235.75;71.32;;;;;;;;;;5363552;26;20222;-41
2024/04/11 04:01:32;;;;;;;234.52;71.57;;;;;;;;;;5371708;26;20285;-41
2024/04/11 04:04:02;;;;;;;235.65;73.43;;;;;;;;;;5370983;26;20223;-41
2024/04/11 04:06:29;;;;;;;239.70;76.70;;;;;;;;;;5374999;26;20281;-41
2024/04/11 04:08:54;;;;;;;237.43;74.25;;;;;;;;;;5374625;26;20233;-41
2024/04/11 04:11:21;;;;;;;236.43;72.43;;;;;;;;;;5368825;26;20760;-41
2024/04/11 04:13:52;;;;;;;240.00;78.03;;;;;;;;;;5367459;26;20807;-41
2024/04/11 04:16:18;;;;;;;238.38;73.75;;;;;;;;;;5379875;26;20268;-41
2024/04/11 04:18:50;;;;;;;236.83;74.90;;;;;;;;;;5379923;26;20729;-41
2024/04/11 04:21:16;;;;;;;239.15;77.80;;;;;;;;;;5379210;26;20445;-41
2024/04/11 04:23:43;;;;;;;237.35;73.22;;;;;;;;;;5380095;26;20241;-41
2024/04/11 04:26:09;;;;;;;239.90;76.65;;;;;;;;;;5359374;26;20723;-41
2024/04/11 04:28:36;;;;;;;240.43;76.30;;;;;;;;;;5371053;26;20223;-41
2024/04/11 04:31:30;;;;;;;239.35;76.43;;;;;;;;;;5375911;26;20240;-41
2024/04/11 04:33:57;;;;;;;237.55;72.60;;;;;;;;;;5375325;26;20262;-41
2024/04/11 04:36:26;;;;;;;243.48;78.55;;;;;;;;;;5373157;26;20231;-41
2024/04/11 04:38:52;;;;;;;240.80;76.45;;;;;;;;;;5372920;26;20224;-41
2024/04/11 04:41:18;;;;;;;237.15;72.68;;;;;;;;;;5365582;26;20812;-41
2024/04/11 04:43:45;;;;;;;241.35;80.28;;;;;;;;;;5372111;26;20251;-41
2024/04/11 04:46:15;;;;;;;238.75;74.57;;;;;;;;;;5370446;26;20291;-41
2024/04/11 04:48:41;;;;;;;237.63;73.65;;;;;;;;;;5369933;26;20301;-41
2024/04/11 04:51:11;;;;;;;240.77;78.43;;;;;;;;;;5369203;26;20322;-41
2024/04/11 04:53:37;;;;;;;238.13;72.70;;;;;;;;;;5371556;26;20806;-41
2024/04/11 04:56:03;;;;;;;238.37;74.57;;;;;;;;;;5374973;26;20273;-41
2024/04/11 04:58:29;;;;;;;237.52;74.55;;;;;;;;;;5367585;26;20906;-41
2024/04/11 05:00:56;;;;;;;239.52;76.63;;;;;;;;;;5379614;26;20598;-41
2024/04/11 05:03:24;;;;;;;241.70;78.82;;;;;;;;;;5379257;26;20226;-41
2024/04/11 05:05:50;;;;;;;235.70;69.45;;;;;;;;;;5378157;26;20228;-41
2024/04/11 05:08:16;;;;;;;238.40;75.78;;;;;;;;;;5377298;26;20233;-41
2024/04/11 05:10:42;;;;;;;236.25;71.35;;;;;;;;;;5378979;26;20355;-41
2024/04/11 05:13:11;;;;;;;236.63;74.10;;;;;;;;;;5377694;26;20864;-41
2024/04/11 05:15:37;;;;;;;236.93;72.32;;;;;;;;;;5375136;26;20514;-41
2024/04/11 05:18:07;;;;;;;240.98;79.18;;;;;;;;;;5365621;26;20228;-41
2024/04/11 05:20:33;;;;;;;238.68;75.22;;;;;;;;;;5373414;26;20258;-41
2024/04/11 05:23:00;;;;;;;240.93;78.07;;;;;;;;;;5372684;26;20552;-41
2024/04/11 05:25:29;;;;;;;238.02;75.35;;;;;;;;;;5371612;26;20599;-41
2024/04/11 05:27:55;;;;;;;236.80;72.72;;;;;;;;;;5373708;26;20728;-41
2024/04/11 05:30:22;;;;;;;238.50;74.50;;;;;;;;;;5370516;26;20606;-41
2024/04/11 05:32:49;;;;;;;242.75;83.10;;;;;;;;;;5369360;26;20261;-41
2024/04/11 05:35:15;;;;;;;240.40;74.45;;;;;;;;;;5370344;26;20262;-41
2024/04/11 05:37:45;;;;;;;235.52;70.80;;;;;;;;;;5360103;26;20236;-41
2024/04/11 05:40:12;;;;;;;242.13;79.43;;;;;;;;;;5346236;26;20223;-41
2024/04/11 05:42:44;;;;;;;241.73;80.40;;;;;;;;;;5362175;26;20765;-41
2024/04/11 05:45:18;;;;;;;242.88;79.05;;;;;;;;;;5379208;26;20221;-41
2024/04/11 05:47:44;;;;;;;242.27;78.85;;;;;;;;;;5377614;26;20232;-41
2024/04/11 05:50:10;;;;;;;243.90;82.63;;;;;;;;;;5377856;26;20278;-41
2024/04/11 05:52:36;;;;;;;237.17;72.23;;;;;;;;;;5377953;26;20227;-41
2024/04/11 05:55:02;;;;;;;238.65;77.10;;;;;;;;;;5361344;26;20462;-41
2024/04/11 05:57:29;;;;;;;240.10;76.22;;;;;;;;;;5379107;26;20235;-41
2024/04/11 05:59:55;;;;;;;241.60;77.05;;;;;;;;;;5375111;26;20238;-41
2024/04/11 06:02:21;;;;;;;236.07;72.77;;;;;;;;;;5373703;26;20274;-41
2024/04/11 06:04:48;;;;;;;239.45;73.68;;;;;;;;;;5372920;26;20562;-41
2024/04/11 06:07:14;;;;;;;237.05;74.55;;;;;;;;;;5371363;26;20307;-41
2024/04/11 06:09:41;;;;;;;243.45;79.70;;;;;;;;;;5373680;26;20236;-41
2024/04/11 06:12:10;;;;;;;240.23;75.47;;;;;;;;;;5376649;26;20236;-41
2024/04/11 06:14:36;;;;;;;239.68;76.13;;;;;;;;;;5369814;26;20308;-41
2024/04/11 06:17:02;;;;;;;242.83;77.43;;;;;;;;;;5365677;26;20231;-41
2024/04/11 06:19:29;;;;;;;243.50;79.30;;;;;;;;;;5355028;26;20500;-41
2024/04/11 06:21:55;;;;;;;238.80;72.95;;;;;;;;;;5345078;26;20225;-41
2024/04/11 06:24:21;;;;;;;246.27;81.63;;;;;;;;;;5373278;26;20269;-41
2024/04/11 06:26:47;;;;;;;242.40;78.03;;;;;;;;;;5370898;26;20546;-41
2024/04/11 06:29:19;;;;;;;241.35;77.40;;;;;;;;;;5378308;26;20775;-41
2024/04/11 06:31:46;;;;;;;238.43;72.40;;;;;;;;;;5378168;26;20236;-41
2024/04/11 06:34:13;;;;;;;237.13;72.65;;;;;;;;;;5364711;26;20760;-41
2024/04/11 06:36:39;;;;;;;242.18;76.70;;;;;;;;;;5375497;26;20230;-41
2024/04/11 06:39:09;;;;;;;239.43;75.30;;;;;;;;;;5375419;26;20330;-41
2024/04/11 06:41:36;;;;;;;243.52;82.53;;;;;;;;;;5378567;26;20286;-41
2024/04/11 06:44:03;;;;;;;241.27;76.05;;;;;;;;;;5374720;26;20700;-41
2024/04/11 06:46:29;;;;;;;241.32;76.32;;;;;;;;;;5372644;26;20223;-41
2024/04/11 06:48:58;;;;;;;242.98;80.75;;;;;;;;;;5373523;26;20240;-41
2024/04/11 06:51:25;;;;;;;239.65;73.18;;;;;;;;;;5358932;26;20266;-41
2024/04/11 06:53:52;;;;;;;239.35;75.78;;;;;;;;;;5371264;26;20227;-41
2024/04/11 06:56:22;;;;;;;235.85;69.55;;;;;;;;;;5356027;26;20630;-41
2024/04/11 06:58:49;;;;;;;238.45;73.10;;;;;;;;;;5371220;26;20223;-41
2024/04/11 07:01:15;;;;;;;238.88;72.57;;;;;;;;;;5365415;26;20225;-41
2024/04/11 07:03:49;;;;;;;241.18;75.97;;;;;;;;;;5366781;26;20236;-41
2024/04/11 07:08:47;;;;;;;242.90;79.68;;;;;;;;;;5384509;26;20267;-41
2024/04/11 07:11:19;;;;;;;238.43;71.57;;;;;;;;;;5377784;26;20230;-41
2024/04/11 07:13:48;;;;;;;241.52;77.65;;;;;;;;;;5371037;26;20262;-41
2024/04/11 07:16:16;;;;;;;237.73;72.50;;;;;;;;;;5358728;26;20593;-41
2024/04/11 07:18:48;;;;;;;237.57;74.18;;;;;;;;;;5362566;26;20275;-41
2024/04/11 07:21:17;;;;;;;238.07;73.45;;;;;;;;;;5380022;26;20278;-41
2024/04/11 07:23:43;;;;;;;243.00;80.60;;;;;;;;;;5368729;26;20618;-41
2024/04/11 07:26:12;;;;;;;243.65;79.30;;;;;;;;;;5365085;26;20229;-41
2024/04/11 07:28:45;;;;;;;237.65;71.50;;;;;;;;;;5372235;26;20268;-41
2024/04/11 07:31:12;;;;;;;239.40;75.35;;;;;;;;;;5356990;26;20223;-41
2024/04/11 07:33:38;;;;;;;239.68;72.32;;;;;;;;;;5352245;26;20338;-41
2024/04/11 07:36:07;;;;;;;241.37;75.10;;;;;;;;;;5371800;26;20229;-41
2024/04/11 07:38:34;;;;;;;241.38;77.10;;;;;;;;;;5370769;26;20575;-41
2024/04/11 07:41:16;;;;;;;241.43;75.93;;;;;;;;;;5367689;26;20721;-41
2024/04/11 07:43:42;;;;;;;237.07;71.97;;;;;;;;;;5380774;26;20293;-41
2024/04/11 07:46:08;;;;;;;244.73;82.97;;;;;;;;;;5368039;26;20284;-41
2024/04/11 07:48:35;;;;;;;246.35;81.50;;;;;;;;;;5357258;26;20769;-41
2024/04/11 07:51:05;;;;;;;239.00;71.57;;;;;;;;;;5367186;26;20296;-41
2024/04/11 07:53:31;;;;;;;240.52;75.10;;;;;;;;;;5369725;26;20735;-41
2024/04/11 07:55:57;;;;;;;244.13;82.82;;;;;;;;;;5367388;26;20331;-41
2024/04/11 07:58:23;;;;;;;243.02;80.18;;;;;;;;;;5363580;26;20616;-41
2024/04/11 08:00:54;;;;;;;244.03;80.00;;;;;;;;;;5367559;26;20728;-41
2024/04/11 08:03:20;;;;;;;242.38;77.53;;;;;;;;;;5358719;26;20508;-41
2024/04/11 08:05:49;;;;;;;243.88;79.43;;;;;;;;;;5374090;26;20224;-41
2024/04/11 08:08:20;;;;;;;246.00;81.55;;;;;;;;;;5358647;26;20676;-41
2024/04/11 08:10:46;;;;;;;241.50;77.93;;;;;;;;;;5368589;26;20229;-41
2024/04/11 08:13:13;;;;;;;238.88;70.80;;;;;;;;;;5369489;26;20279;-41
2024/04/11 08:15:40;;;;;;;245.53;83.00;;;;;;;;;;5368882;26;20225;-41
2024/04/11 08:18:06;;;;;;;243.27;75.20;;;;;;;;;;5370767;26;20447;-41
2024/04/11 08:20:34;;;;;;;242.20;74.68;;;;;;;;;;5379940;26;20495;-41
2024/04/11 08:23:01;;;;;;;245.68;80.13;;;;;;;;;;5381220;26;20228;-41
2024/04/11 08:25:27;;;;;;;240.63;74.68;;;;;;;;;;5346534;26;20278;-41
2024/04/11 08:27:55;;;;;;;243.60;78.43;;;;;;;;;;5348468;26;20234;-41
2024/04/11 08:30:22;;;;;;;241.63;76.50;;;;;;;;;;5345072;26;20499;-41
2024/04/11 08:32:48;;;;;;;248.53;86.03;;;;;;;;;;5350795;26;20313;-41
2024/04/11 08:35:17;;;;;;;250.30;86.00;;;;;;;;;;5352230;26;20442;-41
2024/04/11 08:37:43;;;;;;;249.20;82.27;;;;;;;;;;5354085;26;20465;-41
2024/04/11 08:40:10;;;;;;;245.07;78.57;;;;;;;;;;5354400;26;20470;-41
2024/04/11 08:42:39;;;;;;;246.90;79.80;;;;;;;;;;5350531;26;20516;-41
2024/04/11 08:45:06;;;;;;;246.90;80.50;;;;;;;;;;5350413;26;20511;-41
2024/04/11 08:47:33;;;;;;;245.90;78.00;;;;;;;;;;5359945;26;20573;-41
2024/04/11 08:49:59;;;;;;;242.40;76.50;;;;;;;;;;5370360;26;20595;-41
2024/04/11 08:52:29;;;;;;;243.37;74.37;;;;;;;;;;5381278;26;20230;-41
2024/04/11 08:54:55;;;;;;;247.57;81.57;;;;;;;;;;5364180;26;20466;-41
2024/04/11 08:57:21;;;;;;;250.60;86.40;;;;;;;;;;5360632;26;20516;-41
2024/04/11 08:59:48;;;;;;;247.80;82.70;;;;;;;;;;5379074;26;20842;-41
2024/04/11 09:02:14;;;;;;;244.27;79.97;;;;;;;;;;5371498;26;20495;-41
2024/04/11 09:04:40;;;;;;;246.95;80.60;;;;;;;;;;5365231;26;20861;-41
2024/04/11 09:07:20;;;;;;;245.20;78.57;;;;;;;;;;5377608;26;20225;-41
2024/04/11 09:09:46;;;;;;;248.27;82.27;;;;;;;;;;5375827;26;20859;-41
2024/04/11 09:12:14;;;;;;;248.70;84.30;;;;;;;;;;5375536;26;20569;-41
2024/04/11 09:14:41;;;;;;;247.02;82.05;;;;;;;;;;5376643;26;20452;-41
2024/04/11 09:17:07;;;;;;;245.27;78.80;;;;;;;;;;5374439;26;20217;-41
2024/04/11 09:19:39;;;;;;;245.97;82.30;;;;;;;;;;5376041;26;20857;-41
2024/04/11 09:22:10;;;;;;;243.85;78.85;;;;;;;;;;5374951;26;20452;-41
2024/04/11 09:24:38;;;;;;;241.80;77.45;;;;;;;;;;5374092;26;20263;-41
2024/04/11 09:27:05;;;;;;;244.10;79.97;;;;;;;;;;5350457;26;20255;-41
2024/04/11 09:29:35;;;;;;;244.38;78.90;;;;;;;;;;5377099;26;20248;-41
2024/04/11 09:32:03;;;;;;;251.63;89.10;;;;;;;;;;5375487;26;20387;-41
2024/04/11 09:34:32;;;;;;;247.13;81.87;;;;;;;;;;5370468;26;20455;-41
2024/04/11 09:36:59;;;;;;;248.57;85.37;;;;;;;;;;5376976;26;20798;-41
2024/04/11 09:39:46;;;;;;;246.83;82.60;;;;;;;;;;5369495;26;20451;-41
2024/04/11 09:42:17;;;;;;;246.50;81.57;;;;;;;;;;5367577;26;20474;-41
2024/04/11 09:44:50;;;;;;;244.47;82.27;;;;;;;;;;5369058;26;20575;-41
2024/04/11 09:47:18;;;;;;;245.73;81.43;;;;;;;;;;5374146;26;20510;-41
2024/04/11 09:49:53;;;;;;;245.63;82.63;;;;;;;;;;5371139;26;20895;-41
2024/04/11 09:52:27;;;;;;;250.17;88.67;;;;;;;;;;5378890;26;20453;-41
2024/04/11 09:54:55;;;;;;;251.27;84.27;;;;;;;;;;5378532;26;20538;-41
2024/04/11 09:57:23;;;;;;;243.70;79.33;;;;;;;;;;5375739;26;20500;-41
2024/04/11 09:59:49;;;;;;;246.60;79.67;;;;;;;;;;5376816;26;20630;-41
2024/04/11 10:02:16;;;;;;;250.57;89.60;;;;;;;;;;5375499;26;20452;-41
2024/04/11 10:04:46;;;;;;;250.27;84.90;;;;;;;;;;5376922;26;21110;-41
2024/04/11 10:07:15;;;;;;;246.23;82.27;;;;;;;;;;5376608;26;20506;-41
2024/04/11 10:09:49;;;;;;;248.63;87.93;;;;;;;;;;5373509;26;21051;-41
2024/04/11 10:12:28;;;;;;;245.73;82.57;;;;;;;;;;5372326;26;21172;-41
2024/04/11 10:14:57;;;;;;;248.27;80.27;;;;;;;;;;5370094;26;20449;-41
2024/04/11 10:17:29;;;;;;;251.33;88.77;;;;;;;;;;5365506;26;20511;-41
2024/04/11 10:19:59;;;;;;;247.03;83.77;;;;;;;;;;5363757;26;20451;-41
2024/04/11 10:22:25;;;;;;;245.97;82.23;;;;;;;;;;5374893;26;20520;-41
2024/04/11 10:25:06;;;;;;;247.77;83.40;;;;;;;;;;5372500;26;20457;-41
2024/04/11 10:27:34;;;;;;;249.53;85.63;;;;;;;;;;5378405;26;20449;-41
2024/04/11 10:30:05;;;;;;;249.73;87.50;;;;;;;;;;5366299;26;21014;-41
2024/04/11 10:32:39;;;;;;;245.97;80.87;;;;;;;;;;5364984;26;20466;-41
2024/04/11 10:35:10;;;;;;;256.83;93.03;;;;;;;;;;5377744;26;20515;-41
2024/04/11 10:37:44;;;;;;;252.37;91.53;;;;;;;;;;5376471;26;21086;-41
2024/04/11 10:40:10;;;;;;;243.37;80.93;;;;;;;;;;5376879;26;20468;-41
2024/04/11 10:42:36;;;;;;;246.37;83.70;;;;;;;;;;5378535;26;20506;-41
2024/04/11 10:45:12;;;;;;;245.77;81.43;;;;;;;;;;5375586;26;20452;-41
2024/04/11 10:47:41;;;;;;;246.90;83.70;;;;;;;;;;5374805;26;21118;-41
2024/04/11 10:50:15;;;;;;;250.47;88.10;;;;;;;;;;5373830;26;20525;-41
2024/04/11 10:52:45;;;;;;;245.33;82.37;;;;;;;;;;5372801;26;20996;-41
2024/04/11 10:55:22;;;;;;;256.40;94.37;;;;;;;;;;5371259;26;20831;-41
2024/04/11 10:57:56;;;;;;;248.33;85.73;;;;;;;;;;5371627;26;20998;-41
2024/04/11 11:00:22;;;;;;;246.50;82.77;;;;;;;;;;5363917;26;20447;-41
2024/04/11 11:02:48;;;;;;;246.93;82.87;;;;;;;;;;5371067;26;21097;-42
2024/04/11 11:05:17;;;;;;;250.87;86.50;;;;;;;;;;5368641;26;20451;-41
2024/04/11 11:07:43;;;;;;;248.60;86.17;;;;;;;;;;5367866;26;20454;-41
2024/04/11 11:10:13;;;;;;;251.37;90.10;;;;;;;;;;5366621;26;20520;-41
2024/04/11 11:12:39;;;;;;;241.65;78.50;;;;;;;;;;5368539;26;21065;-41
2024/04/11 11:15:06;;;;;;;249.77;84.57;;;;;;;;;;5372804;26;20420;-41
2024/04/11 11:17:35;;;;;;;246.87;86.47;;;;;;;;;;5366585;26;20451;-41
2024/04/11 11:20:02;;;;;;;242.93;78.37;;;;;;;;;;5377315;26;20557;-41
2024/04/11 11:22:40;;;;;;;248.20;86.47;;;;;;;;;;5377174;26;20578;-41
2024/04/11 11:25:08;;;;;;;249.07;82.33;;;;;;;;;;5372835;26;20509;-41
2024/04/11 11:27:35;;;;;;;255.37;99.30;;;;;;;;;;5353700;26;20546;-42
2024/04/11 11:30:05;;;;;;;247.27;85.60;;;;;;;;;;5374049;26;20522;-41
2024/04/11 11:32:35;;;;;;;246.07;83.00;;;;;;;;;;5377228;26;20570;-41
2024/04/11 11:35:05;;;;;;;249.33;83.67;;;;;;;;;;5350110;26;20446;-41
2024/04/11 11:37:31;;;;;;;247.70;84.73;;;;;;;;;;5360803;26;20456;-41
2024/04/11 11:40:32;;;;;;;246.47;83.27;;;;;;;;;;5363579;26;20444;-41
2024/04/11 11:42:43;;;;;;;247.53;81.27;;;;;;;;;;5351926;26;21033;-41
2024/04/11 11:45:09;;;;;;;253.47;88.00;;;;;;;;;;5370481;26;20592;-41
2024/04/11 11:47:36;;;;;;;249.97;87.77;;;;;;;;;;5376261;26;20577;-41
2024/04/11 11:50:07;;;;;;;249.30;87.53;;;;;;;;;;5377385;26;20508;-41
2024/04/11 11:52:33;;;;;;;246.50;81.87;;;;;;;;;;5370604;26;20505;-41
2024/04/11 11:54:59;;;;;;;247.37;82.10;;;;;;;;;;5362057;26;20904;-41
2024/04/11 11:57:32;;;;;;;245.07;81.27;;;;;;;;;;5366618;26;20457;-41
2024/04/11 11:59:58;;;;;;;243.07;78.20;;;;;;;;;;5367417;26;20845;-41
2024/04/11 12:02:24;;;;;;;250.17;89.17;;;;;;;;;;5380353;26;20470;-41
2024/04/11 12:04:52;;;;;;;247.40;84.87;;;;;;;;;;5380379;26;21004;-41
2024/04/11 12:07:19;;;;;;;256.47;96.60;;;;;;;;;;5366336;26;20585;-41
2024/04/11 12:09:56;;;;;;;251.73;90.43;;;;;;;;;;5379563;26;20452;-41
2024/04/11 12:12:23;;;;;;;248.73;83.17;;;;;;;;;;5378138;26;21003;-42
2024/04/11 12:14:54;;;;;;;254.20;89.83;;;;;;;;;;5376908;26;21237;-41
2024/04/11 12:17:24;;;;;;;249.63;86.93;;;;;;;;;;5375581;26;20540;-41
2024/04/11 12:20:05;;;;;;;253.17;92.30;;;;;;;;;;5375568;26;20521;-41
2024/04/11 12:22:33;;;;;;;246.83;83.40;;;;;;;;;;5367878;26;21189;-41
2024/04/11 12:25:01;;;;;;;248.67;86.93;;;;;;;;;;5374051;26;20826;-41
2024/04/11 12:27:28;;;;;;;262.17;103.13;;;;;;;;;;5364280;26;20959;-41
2024/04/11 12:29:58;;;;;;;250.97;88.83;;;;;;;;;;5379798;26;20939;-41
2024/04/11 12:32:25;;;;;;;252.43;91.50;;;;;;;;;;5371253;26;20464;-41
2024/04/11 12:34:55;;;;;;;249.70;87.37;;;;;;;;;;5352340;26;20513;-41
2024/04/11 12:37:24;;;;;;;253.00;88.67;;;;;;;;;;5344919;26;20446;-41
2024/04/11 12:39:53;;;;;;;249.87;87.17;;;;;;;;;;5373305;26;20509;-41
2024/04/11 12:42:23;;;;;;;246.07;81.90;;;;;;;;;;5367713;26;20451;-41
2024/04/11 12:44:49;;;;;;;247.93;83.00;;;;;;;;;;5366802;26;20504;-41
2024/04/11 12:47:22;;;;;;;254.63;92.87;;;;;;;;;;5365054;26;20864;-41
2024/04/11 12:49:48;;;;;;;251.80;88.10;;;;;;;;;;5379153;26;21031;-41
2024/04/11 12:52:15;;;;;;;250.97;83.17;;;;;;;;;;5371081;26;20520;-41
2024/04/11 12:54:41;;;;;;;251.80;84.97;;;;;;;;;;5368234;26;20584;-40
2024/04/11 12:57:10;;;;;;;247.97;81.70;;;;;;;;;;5376495;26;20455;-41
2024/04/11 12:59:36;;;;;;;251.73;89.03;;;;;;;;;;5376230;26;20903;-41
2024/04/11 13:02:07;;;;;;;253.97;91.90;;;;;;;;;;5374035;26;20509;-40
2024/04/11 13:04:33;;;;;;;249.37;88.27;;;;;;;;;;5374581;26;20799;-40
2024/04/11 13:07:02;;;;;;;249.50;84.17;;;;;;;;;;5373106;26;20506;-40
2024/04/11 13:09:33;;;;;;;250.20;87.47;;;;;;;;;;5378538;26;20449;-40
2024/04/11 13:12:04;;;;;;;246.73;83.23;;;;;;;;;;5375207;26;20462;-40
2024/04/11 13:14:33;;;;;;;254.73;93.53;;;;;;;;;;5370553;26;20512;-41
2024/04/11 13:17:02;;;;;;;249.97;87.53;;;;;;;;;;5369035;26;20582;-40
2024/04/11 13:19:39;;;;;;;256.37;99.00;;;;;;;;;;5370092;26;20527;-40
2024/04/11 13:22:07;;;;;;;244.83;83.87;;;;;;;;;;5368668;26;20475;-42
2024/04/11 13:24:42;;;;;;;249.80;88.93;;;;;;;;;;5378877;26;20546;-41
2024/04/11 13:27:14;;;;;;;253.47;90.77;;;;;;;;;;5376679;26;20463;-42
2024/04/11 13:29:40;;;;;;;247.43;87.03;;;;;;;;;;5370731;26;20554;-41
2024/04/11 13:32:11;;;;;;;249.20;86.00;;;;;;;;;;5379162;26;20453;-41
2024/04/11 13:34:40;;;;;;;257.43;97.17;;;;;;;;;;5378779;26;20507;-41
2024/04/11 13:37:15;;;;;;;247.00;83.50;;;;;;;;;;5374529;26;20511;-41
2024/04/11 13:40:48;;;;;;;248.03;85.30;;;;;;;;;;5373678;26;21149;-40
2024/04/11 13:42:32;;;;;;;245.43;80.60;;;;;;;;;;5378784;26;20887;-41
2024/04/11 13:44:58;;;;;;;257.97;93.50;;;;;;;;;;5362706;26;20457;-41
2024/04/11 13:47:25;;;;;;;248.20;84.30;;;;;;;;;;5378517;26;20455;-41
2024/04/11 13:49:58;;;;;;;244.83;81.17;;;;;;;;;;5374970;26;20569;-41
2024/04/11 13:52:26;;;;;;;249.07;86.23;;;;;;;;;;5365672;26;20520;-40
2024/04/11 13:54:55;;;;;;;247.83;85.13;;;;;;;;;;5359384;26;20891;-40
2024/04/11 13:57:22;;;;;;;249.27;87.20;;;;;;;;;;5357242;26;20574;-42
2024/04/11 13:59:57;;;;;;;251.43;90.00;;;;;;;;;;5371750;26;20453;-41
2024/04/11 14:02:46;;;;;;;251.13;89.73;;;;;;;;;;5361186;26;20551;-40
2024/04/11 14:05:29;;;;;;;252.70;91.30;;;;;;;;;;5376058;26;20940;-41
2024/04/11 14:07:59;;;;;;;252.93;92.20;;;;;;;;;;5372365;26;20466;-41
2024/04/11 14:10:27;;;;;;;249.70;86.47;;;;;;;;;;5366829;26;20547;-41
2024/04/11 14:12:54;;;;;;;251.37;91.40;;;;;;;;;;5366008;26;20470;-42